Time;durP1;ratioP1;P1;durP2;ratioP2;P2;SDS_P1;SDS_P2;PMS_P1;PMS_P2;Temp;Humidity;BMP_temperature;BMP_pressure;BME280_temperature;BME280_humidity;BME280_pressure;Samples;Min_cycle;Max_cycle;Signal;HPM_P1;HPM_P2
2021/05/15 00:01:08;;;;;;;;;;;16.50;57.70;;;;;;5056239;28;19956;-61
2021/05/15 00:03:34;;;;;;;;;;;16.60;57.80;;;;;;5073007;28;19909;-62
2021/05/15 00:06:00;;;;;;;;;;;16.60;57.80;;;;;;5055152;28;19919;-62
2021/05/15 00:08:25;;;;;;;;;;;16.50;57.80;;;;;;5073695;28;19904;-62
2021/05/15 00:10:51;;;;;;;;;;;16.50;57.90;;;;;;5074013;28;19911;-62
2021/05/15 00:13:17;;;;;;;;;;;16.40;58.00;;;;;;5074580;28;19911;-61
2021/05/15 00:15:43;;;;;;;;;;;16.30;58.20;;;;;;5055950;28;19904;-61
2021/05/15 00:18:08;;;;;;;;;;;16.30;58.40;;;;;;5056045;28;20374;-61
2021/05/15 00:20:34;;;;;;;;;;;16.20;58.40;;;;;;5077294;28;19916;-61
2021/05/15 00:22:59;;;;;;;;;;;16.30;58.50;;;;;;5060097;28;20030;-61
2021/05/15 00:25:25;;;;;;;;;;;16.20;58.50;;;;;;5078148;28;20369;-63
2021/05/15 00:27:50;;;;;;;;;;;16.20;58.60;;;;;;5059247;28;20310;-62
2021/05/15 00:30:17;;;;;;;;;;;16.20;58.70;;;;;;5077648;28;20256;-61
2021/05/15 00:32:43;;;;;;;;;;;16.20;58.70;;;;;;5059828;28;19904;-61
2021/05/15 00:35:09;;;;;;;;;;;16.20;58.60;;;;;;5059908;28;19904;-61
2021/05/15 00:37:34;;;;;;;;;;;16.30;58.50;;;;;;5059745;28;19911;-61
2021/05/15 00:40:00;;;;;;;;;;;16.30;58.50;;;;;;5077639;28;19986;-62
2021/05/15 00:42:26;;;;;;;;;;;16.30;58.50;;;;;;5077366;28;20261;-61
2021/05/15 00:44:51;;;;;;;;;;;16.40;58.40;;;;;;5059616;28;19908;-61
2021/05/15 00:47:18;;;;;;;;;;;16.40;58.30;;;;;;5059276;28;20351;-61
2021/05/15 00:49:44;;;;;;;;;;;16.40;58.30;;;;;;5059525;28;20351;-61
2021/05/15 00:52:10;;;;;;;;;;;16.20;58.50;;;;;;5077277;28;19908;-61
2021/05/15 00:54:37;;;;;;;;;;;16.10;58.80;;;;;;5059393;28;19943;-61
2021/05/15 00:57:02;;;;;;;;;;;16.10;59.00;;;;;;5059366;28;19904;-61
2021/05/15 00:59:28;;;;;;;;;;;16.00;59.20;;;;;;5077538;28;19911;-61
2021/05/15 01:01:54;;;;;;;;;;;15.90;59.30;;;;;;5059228;28;19908;-63
2021/05/15 01:04:19;;;;;;;;;;;15.80;59.50;;;;;;5058144;28;19935;-61
2021/05/15 01:06:45;;;;;;;;;;;15.80;59.60;;;;;;5057966;28;20287;-63
2021/05/15 01:09:10;;;;;;;;;;;15.70;59.60;;;;;;5077096;28;19904;-61
2021/05/15 01:11:36;;;;;;;;;;;15.70;59.70;;;;;;5059434;28;19950;-61
2021/05/15 01:14:03;;;;;;;;;;;15.70;59.70;;;;;;5076887;28;19951;-61
2021/05/15 01:16:30;;;;;;;;;;;15.70;59.80;;;;;;5077043;28;19950;-62
2021/05/15 01:18:56;;;;;;;;;;;15.70;59.80;;;;;;5076313;28;19908;-68
2021/05/15 01:21:22;;;;;;;;;;;15.60;59.90;;;;;;5058438;28;20324;-68
2021/05/15 01:23:47;;;;;;;;;;;15.70;60.00;;;;;;5076338;28;19909;-67
2021/05/15 01:26:13;;;;;;;;;;;15.70;59.90;;;;;;5076899;28;19961;-68
2021/05/15 01:28:39;;;;;;;;;;;15.80;59.70;;;;;;5076710;28;19970;-68
2021/05/15 01:31:04;;;;;;;;;;;15.90;59.60;;;;;;5076302;28;20275;-69
2021/05/15 01:33:30;;;;;;;;;;;16.00;59.60;;;;;;5058489;28;19904;-68
2021/05/15 01:35:56;;;;;;;;;;;15.90;59.50;;;;;;5058218;28;20419;-68
2021/05/15 01:38:21;;;;;;;;;;;16.00;59.50;;;;;;5058182;28;19904;-68
2021/05/15 01:40:47;;;;;;;;;;;16.00;59.40;;;;;;5076503;28;19904;-67
2021/05/15 01:43:19;;;;;;;;;;;16.00;59.50;;;;;;5058710;28;20266;-68
2021/05/15 01:45:44;;;;;;;;;;;16.00;59.50;;;;;;5076972;28;19908;-68
2021/05/15 01:48:17;;;;;;;;;;;16.00;59.50;;;;;;5058570;28;19911;-68
2021/05/15 01:50:45;;;;;;;;;;;16.00;59.50;;;;;;5076326;28;19912;-68
2021/05/15 01:53:10;;;;;;;;;;;16.00;59.50;;;;;;5058005;28;19911;-68
2021/05/15 01:55:36;;;;;;;;;;;16.00;59.60;;;;;;5058388;28;20406;-68
2021/05/15 01:58:02;;;;;;;;;;;16.00;59.60;;;;;;5076244;28;19911;-68
2021/05/15 02:00:28;;;;;;;;;;;16.00;60.20;;;;;;5058002;28;19904;-68
2021/05/15 02:02:53;;;;;;;;;;;16.00;59.70;;;;;;5076409;28;20007;-67
2021/05/15 02:05:19;;;;;;;;;;;16.00;59.80;;;;;;5076287;28;20079;-67
2021/05/15 02:07:44;;;;;;;;;;;16.00;59.80;;;;;;5075762;28;19980;-67
2021/05/15 02:10:10;;;;;;;;;;;15.90;59.80;;;;;;5058454;28;19950;-67
2021/05/15 02:12:36;;;;;;;;;;;15.90;59.90;;;;;;5075758;28;20370;-67
2021/05/15 02:15:01;;;;;;;;;;;15.80;60.10;;;;;;5058052;28;19957;-65
2021/05/15 02:17:27;;;;;;;;;;;15.60;60.40;;;;;;5063437;28;20424;-66
2021/05/15 02:19:53;;;;;;;;;;;15.50;60.70;;;;;;5047131;28;19912;-67
2021/05/15 02:22:18;;;;;;;;;;;15.40;60.90;;;;;;5062785;28;19921;-68
2021/05/15 02:24:44;;;;;;;;;;;15.30;61.10;;;;;;5065048;28;19917;-67
2021/05/15 02:27:09;;;;;;;;;;;15.20;61.20;;;;;;5046187;28;19991;-67
2021/05/15 02:29:35;;;;;;;;;;;15.20;61.40;;;;;;5045436;28;19905;-67
2021/05/15 02:32:01;;;;;;;;;;;15.20;61.50;;;;;;5065244;28;19905;-68
2021/05/15 02:34:26;;;;;;;;;;;15.30;61.40;;;;;;5045385;28;19905;-67
2021/05/15 02:36:52;;;;;;;;;;;15.30;61.30;;;;;;5063914;28;20674;-68
2021/05/15 02:39:18;;;;;;;;;;;15.20;61.40;;;;;;5071987;28;20275;-69
2021/05/15 02:41:43;;;;;;;;;;;15.10;61.60;;;;;;5056087;28;19904;-64
2021/05/15 02:44:09;;;;;;;;;;;15.10;61.80;;;;;;5046318;28;20442;-68
2021/05/15 02:46:35;;;;;;;;;;;15.00;61.80;;;;;;5063721;28;19909;-68
2021/05/15 02:49:00;;;;;;;;;;;15.00;62.00;;;;;;5044901;28;19951;-69
2021/05/15 02:51:26;;;;;;;;;;;14.90;62.00;;;;;;5064507;28;19919;-67
2021/05/15 02:53:53;;;;;;;;;;;15.00;62.20;;;;;;5070216;28;19905;-68
2021/05/15 02:56:18;;;;;;;;;;;15.10;62.10;;;;;;5063038;28;19909;-67
2021/05/15 02:58:44;;;;;;;;;;;15.10;62.00;;;;;;5064833;28;19905;-69
2021/05/15 03:01:09;;;;;;;;;;;15.10;62.00;;;;;;5062523;28;19908;-67
2021/05/15 03:03:35;;;;;;;;;;;15.20;62.00;;;;;;5056952;28;20393;-67
2021/05/15 03:06:00;;;;;;;;;;;15.20;62.00;;;;;;5064741;28;19958;-67
2021/05/15 03:08:26;;;;;;;;;;;15.20;62.10;;;;;;5070018;28;19951;-67
2021/05/15 03:10:51;;;;;;;;;;;15.20;62.20;;;;;;5044069;28;20003;-67
2021/05/15 03:13:17;;;;;;;;;;;15.20;62.20;;;;;;5064206;28;20324;-66
2021/05/15 03:15:42;;;;;;;;;;;15.20;62.20;;;;;;5044537;28;20415;-67
2021/05/15 03:18:08;;;;;;;;;;;15.20;62.20;;;;;;5045095;28;20035;-68
2021/05/15 03:20:34;;;;;;;;;;;15.20;62.30;;;;;;5063834;28;19970;-68
2021/05/15 03:23:00;;;;;;;;;;;15.30;62.30;;;;;;5065404;28;19920;-68
2021/05/15 03:25:25;;;;;;;;;;;15.40;62.40;;;;;;5064089;28;20279;-68
2021/05/15 03:27:51;;;;;;;;;;;15.40;62.30;;;;;;5044336;28;20350;-68
2021/05/15 03:30:17;;;;;;;;;;;15.40;62.40;;;;;;5062890;28;19908;-69
2021/05/15 03:32:43;;;;;;;;;;;15.40;62.50;;;;;;5063993;28;19904;-68
2021/05/15 03:35:09;;;;;;;;;;;15.50;62.50;;;;;;5043809;28;20266;-68
2021/05/15 03:37:35;;;;;;;;;;;15.50;62.40;;;;;;5062862;28;20374;-67
2021/05/15 03:40:00;;;;;;;;;;;15.50;62.50;;;;;;5063412;28;19944;-67
2021/05/15 03:42:26;;;;;;;;;;;15.50;62.60;;;;;;5043769;28;19971;-70
2021/05/15 03:44:52;;;;;;;;;;;15.50;62.60;;;;;;5045449;28;20407;-70
2021/05/15 03:47:17;;;;;;;;;;;15.50;62.60;;;;;;5044777;28;19915;-71
2021/05/15 03:49:43;;;;;;;;;;;15.50;62.60;;;;;;5066493;28;19905;-68
2021/05/15 03:52:09;;;;;;;;;;;15.60;62.70;;;;;;5058767;28;19948;-66
2021/05/15 03:54:36;;;;;;;;;;;15.60;62.70;;;;;;5060731;28;20248;-66
2021/05/15 03:57:02;;;;;;;;;;;15.70;62.70;;;;;;5061342;28;20283;-66
2021/05/15 03:59:27;;;;;;;;;;;15.70;62.60;;;;;;5045964;28;19912;-65
2021/05/15 04:01:53;;;;;;;;;;;15.70;62.70;;;;;;5044158;28;20272;-67
2021/05/15 04:04:18;;;;;;;;;;;15.70;62.80;;;;;;5045453;28;20334;-66
2021/05/15 04:06:44;;;;;;;;;;;15.70;62.80;;;;;;5070377;28;19909;-65
2021/05/15 04:09:09;;;;;;;;;;;15.70;62.90;;;;;;5062162;28;19908;-64
2021/05/15 04:11:37;;;;;;;;;;;15.80;63.00;;;;;;5035823;28;19904;-65
2021/05/15 04:17:13;;;;;;;;;;;15.80;63.00;;;;;;5063319;28;19915;-69
2021/05/15 04:19:39;;;;;;;;;;;15.90;63.00;;;;;;5045580;28;19916;-70
2021/05/15 04:22:04;;;;;;;;;;;15.90;63.00;;;;;;5059463;28;19920;-70
2021/05/15 04:24:30;;;;;;;;;;;16.00;63.10;;;;;;5053410;28;19913;-68
2021/05/15 04:26:57;;;;;;;;;;;16.10;63.00;;;;;;5035927;28;19909;-61
2021/05/15 04:29:23;;;;;;;;;;;16.20;63.10;;;;;;5035408;28;19956;-69
2021/05/15 04:31:49;;;;;;;;;;;16.20;63.00;;;;;;5053360;28;19909;-68
2021/05/15 04:34:15;;;;;;;;;;;16.30;63.00;;;;;;5053358;28;20309;-71
2021/05/15 04:36:40;;;;;;;;;;;16.30;63.00;;;;;;5035633;28;19904;-68
2021/05/15 04:39:06;;;;;;;;;;;16.30;63.10;;;;;;5053274;28;20267;-70
2021/05/15 04:41:32;;;;;;;;;;;16.30;63.10;;;;;;5053634;28;19905;-69
2021/05/15 04:43:58;;;;;;;;;;;16.40;63.10;;;;;;5035154;28;19920;-70
2021/05/15 04:46:23;;;;;;;;;;;16.40;63.10;;;;;;5034902;28;19994;-70
2021/05/15 04:48:49;;;;;;;;;;;16.50;63.10;;;;;;5053263;28;19925;-74
2021/05/15 04:51:14;;;;;;;;;;;16.50;63.10;;;;;;5035408;28;20344;-70
2021/05/15 04:53:40;;;;;;;;;;;16.60;63.20;;;;;;5053126;28;19915;-68
2021/05/15 04:56:08;;;;;;;;;;;16.60;63.10;;;;;;5035233;28;19912;-69
2021/05/15 04:58:34;;;;;;;;;;;16.60;63.10;;;;;;5053721;28;19904;-67
2021/05/15 05:01:00;;;;;;;;;;;16.70;63.20;;;;;;5033174;28;20390;-68
2021/05/15 05:03:25;;;;;;;;;;;16.70;63.20;;;;;;5069705;28;19913;-67
2021/05/15 05:05:51;;;;;;;;;;;16.70;63.20;;;;;;5044986;28;19938;-67
2021/05/15 05:08:17;;;;;;;;;;;16.80;63.20;;;;;;5044164;28;19912;-68
2021/05/15 05:10:43;;;;;;;;;;;16.80;63.10;;;;;;5047326;28;19913;-67
2021/05/15 05:13:08;;;;;;;;;;;16.80;63.20;;;;;;5062616;28;19958;-68
2021/05/15 05:15:34;;;;;;;;;;;16.80;63.20;;;;;;5065299;28;20726;-68
2021/05/15 05:17:59;;;;;;;;;;;16.80;63.20;;;;;;5063239;28;19916;-70
2021/05/15 05:20:25;;;;;;;;;;;16.80;63.40;;;;;;5046267;28;19916;-69
2021/05/15 05:22:51;;;;;;;;;;;16.80;63.40;;;;;;5065694;28;20305;-68
2021/05/15 05:25:17;;;;;;;;;;;16.80;63.40;;;;;;5047373;28;19917;-68
2021/05/15 05:27:47;;;;;;;;;;;16.80;63.40;;;;;;5047280;28;19908;-71
2021/05/15 05:30:16;;;;;;;;;;;16.90;63.40;;;;;;5047207;28;20275;-68
2021/05/15 05:32:43;;;;;;;;;;;16.90;63.40;;;;;;5065188;28;19911;-67
2021/05/15 05:35:08;;;;;;;;;;;17.00;63.40;;;;;;5065194;28;19959;-70
2021/05/15 05:37:34;;;;;;;;;;;17.10;63.40;;;;;;5045949;28;19933;-68
2021/05/15 05:40:00;;;;;;;;;;;17.20;63.30;;;;;;5064269;28;19917;-68
2021/05/15 05:42:25;;;;;;;;;;;17.30;63.30;;;;;;5062814;28;19915;-65
2021/05/15 05:44:51;;;;;;;;;;;17.30;63.30;;;;;;5063151;28;20278;-68
2021/05/15 05:47:16;;;;;;;;;;;17.40;63.10;;;;;;5045747;28;20395;-67
2021/05/15 05:49:42;;;;;;;;;;;17.50;63.20;;;;;;5069725;28;19915;-68
2021/05/15 05:52:07;;;;;;;;;;;17.60;63.00;;;;;;5045252;28;19904;-67
2021/05/15 05:54:33;;;;;;;;;;;17.70;63.00;;;;;;5071031;28;19908;-67
2021/05/15 05:56:58;;;;;;;;;;;17.70;63.00;;;;;;5062029;28;20259;-67
2021/05/15 05:59:24;;;;;;;;;;;17.80;62.90;;;;;;5045718;28;19959;-68
2021/05/15 06:01:49;;;;;;;;;;;17.90;62.80;;;;;;5063295;28;19962;-69
2021/05/15 06:04:15;;;;;;;;;;;18.00;62.80;;;;;;5061884;28;19920;-67
2021/05/15 06:06:40;;;;;;;;;;;18.10;62.70;;;;;;5062034;28;19912;-68
2021/05/15 06:09:06;;;;;;;;;;;18.20;62.70;;;;;;5069309;28;19913;-66
2021/05/15 06:11:31;;;;;;;;;;;18.20;62.50;;;;;;5054213;28;19947;-68
2021/05/15 06:13:57;;;;;;;;;;;18.20;62.50;;;;;;5069178;28;20381;-67
2021/05/15 06:16:22;;;;;;;;;;;18.20;62.40;;;;;;5062405;28;19912;-69
2021/05/15 06:18:48;;;;;;;;;;;18.40;62.50;;;;;;5063070;28;19924;-70
2021/05/15 06:21:14;;;;;;;;;;;18.40;62.40;;;;;;5058680;28;20264;-70
2021/05/15 06:23:39;;;;;;;;;;;18.50;62.30;;;;;;5045802;28;19912;-70
2021/05/15 06:26:09;;;;;;;;;;;18.60;62.20;;;;;;5064135;28;19931;-68
2021/05/15 06:28:38;;;;;;;;;;;18.70;62.20;;;;;;5065103;28;19904;-69
2021/05/15 06:31:04;;;;;;;;;;;18.80;62.10;;;;;;5064788;28;20014;-69
2021/05/15 06:33:29;;;;;;;;;;;18.90;62.00;;;;;;5065054;28;19962;-69
2021/05/15 06:35:55;;;;;;;;;;;19.00;61.90;;;;;;5046776;28;20415;-70
2021/05/15 06:38:21;;;;;;;;;;;19.00;61.70;;;;;;5064109;28;19918;-68
2021/05/15 06:40:46;;;;;;;;;;;19.10;61.70;;;;;;5060089;28;20279;-66
2021/05/15 06:43:12;;;;;;;;;;;19.20;61.70;;;;;;5059955;28;19927;-68
2021/05/15 06:45:37;;;;;;;;;;;19.20;61.60;;;;;;5062859;28;20068;-67
2021/05/15 06:48:03;;;;;;;;;;;19.20;61.50;;;;;;5058197;28;19919;-70
2021/05/15 06:50:29;;;;;;;;;;;19.30;61.50;;;;;;5042859;28;19916;-71
2021/05/15 06:52:54;;;;;;;;;;;19.30;61.40;;;;;;5040396;28;19923;-69
2021/05/15 06:55:20;;;;;;;;;;;19.30;61.40;;;;;;5060630;28;20377;-72
2021/05/15 06:57:45;;;;;;;;;;;19.30;61.30;;;;;;5060365;28;19944;-70
2021/05/15 07:00:11;;;;;;;;;;;19.40;61.20;;;;;;5042836;28;19904;-72
2021/05/15 07:02:37;;;;;;;;;;;19.50;61.10;;;;;;5060724;28;19951;-73
2021/05/15 07:05:03;;;;;;;;;;;19.50;61.00;;;;;;5042122;28;19952;-71
2021/05/15 07:07:28;;;;;;;;;;;19.50;60.80;;;;;;5041711;28;20003;-70
2021/05/15 07:09:54;;;;;;;;;;;19.60;60.70;;;;;;5042952;28;20014;-70
2021/05/15 07:12:21;;;;;;;;;;;19.60;60.60;;;;;;5042313;28;20012;-71
2021/05/15 07:14:48;;;;;;;;;;;19.70;60.60;;;;;;5039563;28;19915;-68
2021/05/15 07:17:13;;;;;;;;;;;19.70;60.50;;;;;;5056527;28;19905;-69
2021/05/15 07:19:39;;;;;;;;;;;19.80;60.50;;;;;;5056592;28;20422;-68
2021/05/15 07:22:04;;;;;;;;;;;19.90;60.30;;;;;;5056419;28;20011;-68
2021/05/15 07:24:30;;;;;;;;;;;19.90;60.50;;;;;;5042344;28;20362;-70
2021/05/15 07:26:55;;;;;;;;;;;20.00;60.10;;;;;;5042018;28;20000;-68
2021/05/15 07:29:21;;;;;;;;;;;20.10;60.00;;;;;;5069191;28;19905;-69
2021/05/15 07:31:47;;;;;;;;;;;20.20;60.00;;;;;;5061001;28;19908;-67
2021/05/15 07:34:12;;;;;;;;;;;20.20;59.80;;;;;;5050175;28;20406;-69
2021/05/15 07:36:38;;;;;;;;;;;20.30;59.70;;;;;;5055992;28;19994;-69
2021/05/15 07:39:04;;;;;;;;;;;20.30;59.80;;;;;;5068959;28;20340;-69
2021/05/15 07:41:30;;;;;;;;;;;20.40;59.70;;;;;;5062946;28;19957;-69
2021/05/15 07:43:55;;;;;;;;;;;20.40;59.70;;;;;;5063516;28;20017;-68
2021/05/15 07:46:21;;;;;;;;;;;20.50;59.50;;;;;;5043723;28;19908;-70
2021/05/15 07:48:47;;;;;;;;;;;20.50;59.40;;;;;;5045035;28;20420;-69
2021/05/15 07:51:19;;;;;;;;;;;20.60;59.40;;;;;;5045904;28;19915;-68
2021/05/15 07:53:45;;;;;;;;;;;20.60;59.20;;;;;;5061865;28;19991;-68
2021/05/15 07:56:10;;;;;;;;;;;20.70;59.10;;;;;;5062698;28;20049;-68
2021/05/15 07:58:36;;;;;;;;;;;20.70;58.90;;;;;;5063343;28;19913;-69
2021/05/15 08:01:02;;;;;;;;;;;20.80;58.90;;;;;;5045687;28;19909;-71
2021/05/15 08:03:27;;;;;;;;;;;20.80;58.90;;;;;;5044019;28;20319;-73
2021/05/15 08:05:53;;;;;;;;;;;20.90;58.80;;;;;;5043951;28;20374;-69
2021/05/15 08:08:19;;;;;;;;;;;21.00;58.60;;;;;;5046935;28;19916;-67
2021/05/15 08:10:45;;;;;;;;;;;21.10;58.60;;;;;;5067518;28;19908;-71
2021/05/15 08:13:10;;;;;;;;;;;21.10;58.60;;;;;;5068474;28;20386;-70
2021/05/15 08:15:36;;;;;;;;;;;21.10;58.30;;;;;;5050525;28;19919;-71
2021/05/15 08:18:01;;;;;;;;;;;21.20;58.40;;;;;;5069488;28;19904;-72
2021/05/15 08:20:27;;;;;;;;;;;21.30;58.40;;;;;;5068357;28;19955;-71
2021/05/15 08:22:53;;;;;;;;;;;21.30;58.10;;;;;;5047689;28;19915;-69
2021/05/15 08:25:19;;;;;;;;;;;21.40;57.90;;;;;;5070330;28;20286;-69
2021/05/15 08:27:50;;;;;;;;;;;21.50;57.90;;;;;;5053196;28;19912;-69
2021/05/15 08:30:18;;;;;;;;;;;21.50;57.50;;;;;;5033685;28;20347;-70
2021/05/15 08:32:53;;;;;;;;;;;21.60;57.40;;;;;;5047761;28;19904;-71
2021/05/15 08:35:19;;;;;;;;;;;21.70;57.30;;;;;;5044996;28;19909;-71
2021/05/15 08:37:45;;;;;;;;;;;21.80;57.10;;;;;;5043511;28;20006;-74
2021/05/15 08:40:12;;;;;;;;;;;21.90;57.00;;;;;;5034507;28;19912;-71
2021/05/15 08:42:39;;;;;;;;;;;21.90;56.80;;;;;;5054729;28;20005;-73
2021/05/15 08:45:05;;;;;;;;;;;22.00;56.70;;;;;;5037812;28;19913;-67
2021/05/15 08:47:31;;;;;;;;;;;22.10;56.70;;;;;;5038853;28;19916;-72
2021/05/15 08:50:00;;;;;;;;;;;22.20;56.40;;;;;;5057608;28;19909;-73
2021/05/15 08:52:26;;;;;;;;;;;22.30;56.30;;;;;;5057209;28;19960;-73
2021/05/15 08:54:52;;;;;;;;;;;22.40;56.10;;;;;;5056957;28;20310;-74
2021/05/15 08:57:18;;;;;;;;;;;22.60;55.90;;;;;;5057158;28;19909;-74
2021/05/15 08:59:45;;;;;;;;;;;22.90;55.60;;;;;;5039115;28;19905;-73
2021/05/15 09:02:11;;;;;;;;;;;23.00;55.40;;;;;;5046021;28;19905;-72
2021/05/15 09:04:37;;;;;;;;;;;23.10;55.40;;;;;;5066596;28;20274;-71
2021/05/15 09:07:02;;;;;;;;;;;23.00;55.20;;;;;;5064807;28;19912;-72
2021/05/15 09:09:28;;;;;;;;;;;23.00;55.10;;;;;;5047528;28;19908;-72
2021/05/15 09:11:54;;;;;;;;;;;23.00;55.20;;;;;;5066634;28;19908;-71
2021/05/15 09:14:19;;;;;;;;;;;23.10;55.10;;;;;;5046363;28;19983;-73
2021/05/15 09:16:55;;;;;;;;;;;23.10;54.70;;;;;;5058810;28;19905;-70
2021/05/15 09:19:21;;;;;;;;;;;22.90;54.70;;;;;;5059271;28;19908;-69
2021/05/15 09:21:57;;;;;;;;;;;23.00;55.00;;;;;;5067392;28;20037;-69
2021/05/15 09:24:26;;;;;;;;;;;23.00;54.80;;;;;;5073007;28;19959;-69
2021/05/15 09:26:52;;;;;;;;;;;22.90;54.90;;;;;;5046971;28;19912;-70
2021/05/15 09:29:17;;;;;;;;;;;22.90;55.50;;;;;;5064764;28;19904;-68
2021/05/15 09:31:45;;;;;;;;;;;23.00;55.00;;;;;;5066250;28;19990;-69
2021/05/15 09:34:11;;;;;;;;;;;23.00;54.80;;;;;;5072261;28;19931;-68
2021/05/15 09:36:44;;;;;;;;;;;23.00;54.60;;;;;;5047689;28;20339;-69
2021/05/15 09:39:17;;;;;;;;;;;22.80;54.50;;;;;;5064233;28;20413;-68
2021/05/15 09:41:44;;;;;;;;;;;22.70;54.60;;;;;;5045714;28;20477;-68
2021/05/15 09:44:11;;;;;;;;;;;22.70;54.50;;;;;;5065417;28;19909;-68
2021/05/15 09:46:38;;;;;;;;;;;22.70;54.50;;;;;;5047450;28;19914;-70
2021/05/15 09:49:04;;;;;;;;;;;22.70;54.50;;;;;;5063748;28;19905;-69
2021/05/15 09:51:30;;;;;;;;;;;22.70;54.40;;;;;;5047339;28;20286;-69
2021/05/15 09:54:09;;;;;;;;;;;22.80;54.40;;;;;;5044918;28;19904;-69
2021/05/15 09:56:35;;;;;;;;;;;22.90;54.40;;;;;;5072402;28;19912;-69
2021/05/15 09:59:00;;;;;;;;;;;23.00;53.90;;;;;;5056367;28;19962;-68
2021/05/15 10:01:26;;;;;;;;;;;23.00;53.60;;;;;;5074350;28;19912;-70
2021/05/15 10:03:57;;;;;;;;;;;23.10;53.80;;;;;;5073831;28;20453;-69
2021/05/15 10:06:23;;;;;;;;;;;23.20;53.60;;;;;;5074255;28;19930;-69
2021/05/15 10:08:48;;;;;;;;;;;23.20;53.40;;;;;;5050853;28;19912;-71
2021/05/15 10:11:14;;;;;;;;;;;23.30;53.60;;;;;;5050934;28;19904;-69
2021/05/15 10:13:43;;;;;;;;;;;23.40;53.40;;;;;;5063667;28;19932;-70
2021/05/15 10:16:08;;;;;;;;;;;23.40;53.10;;;;;;5045319;28;20023;-68
2021/05/15 10:18:34;;;;;;;;;;;23.40;53.10;;;;;;5072730;28;19932;-68
2021/05/15 10:21:01;;;;;;;;;;;23.40;53.20;;;;;;5054463;28;21247;-69
2021/05/15 10:23:37;;;;;;;;;;;23.40;53.00;;;;;;5062822;28;19912;-70
2021/05/15 10:26:07;;;;;;;;;;;23.50;53.00;;;;;;5062967;28;19934;-68
2021/05/15 10:28:34;;;;;;;;;;;23.50;52.60;;;;;;5046031;28;19904;-70
2021/05/15 10:31:04;;;;;;;;;;;23.60;52.70;;;;;;5064329;28;19966;-69
2021/05/15 10:33:30;;;;;;;;;;;23.70;52.60;;;;;;5039298;28;19920;-69
2021/05/15 10:35:56;;;;;;;;;;;23.70;52.60;;;;;;5062181;28;19915;-73
2021/05/15 10:38:29;;;;;;;;;;;23.70;52.60;;;;;;5062125;28;19908;-69
2021/05/15 10:40:54;;;;;;;;;;;23.70;52.40;;;;;;5063493;28;20322;-70
2021/05/15 10:43:33;;;;;;;;;;;23.70;52.30;;;;;;5047584;28;20008;-69
2021/05/15 10:45:59;;;;;;;;;;;23.80;52.20;;;;;;5062693;28;19965;-71
2021/05/15 10:48:26;;;;;;;;;;;24.00;52.10;;;;;;5070594;28;19985;-69
2021/05/15 10:50:54;;;;;;;;;;;24.00;51.90;;;;;;5045316;28;19912;-68
2021/05/15 10:53:20;;;;;;;;;;;24.10;52.00;;;;;;5062993;28;19995;-69
2021/05/15 10:55:59;;;;;;;;;;;24.20;51.90;;;;;;5044708;28;19915;-69
2021/05/15 10:58:37;;;;;;;;;;;24.40;51.90;;;;;;5064052;28;19950;-71
2021/05/15 11:01:14;;;;;;;;;;;24.50;51.50;;;;;;5063533;28;19932;-69
2021/05/15 11:03:40;;;;;;;;;;;24.40;51.30;;;;;;5044703;28;19909;-70
2021/05/15 11:06:12;;;;;;;;;;;24.40;51.30;;;;;;5044131;28;19916;-68
2021/05/15 11:08:38;;;;;;;;;;;24.30;51.30;;;;;;5044274;28;20000;-68
2021/05/15 11:11:09;;;;;;;;;;;24.30;51.30;;;;;;5061070;28;19991;-69
2021/05/15 11:13:50;;;;;;;;;;;24.40;51.30;;;;;;5063687;28;19908;-70
2021/05/15 11:16:17;;;;;;;;;;;24.40;51.00;;;;;;5052341;28;20049;-70
2021/05/15 11:18:43;;;;;;;;;;;24.30;51.10;;;;;;5046467;28;19911;-68
2021/05/15 11:21:09;;;;;;;;;;;24.30;51.10;;;;;;5067128;28;19920;-68
2021/05/15 11:23:36;;;;;;;;;;;24.30;51.10;;;;;;5064223;28;19912;-69
2021/05/15 11:26:04;;;;;;;;;;;24.50;51.10;;;;;;5043696;28;20003;-68
2021/05/15 11:28:30;;;;;;;;;;;24.60;50.90;;;;;;5059344;28;19916;-63
2021/05/15 11:30:56;;;;;;;;;;;24.80;50.60;;;;;;5041248;28;19908;-63
2021/05/15 11:33:22;;;;;;;;;;;24.90;50.30;;;;;;5063490;28;20027;-61
2021/05/15 11:35:49;;;;;;;;;;;24.90;50.20;;;;;;5062781;28;19905;-64
2021/05/15 11:38:17;;;;;;;;;;;24.80;50.30;;;;;;5060688;28;19963;-63
2021/05/15 11:40:45;;;;;;;;;;;24.80;50.30;;;;;;5043034;28;19913;-63
2021/05/15 11:43:15;;;;;;;;;;;24.90;50.30;;;;;;5061602;28;19905;-61
2021/05/15 11:45:40;;;;;;;;;;;25.00;50.10;;;;;;5043128;28;19952;-64
2021/05/15 11:48:22;;;;;;;;;;;25.00;49.90;;;;;;5057275;28;19967;-64
2021/05/15 11:51:11;;;;;;;;;;;24.80;49.80;;;;;;5040164;28;20428;-63
2021/05/15 11:53:40;;;;;;;;;;;24.80;50.00;;;;;;5040742;28;19987;-63
2021/05/15 11:56:13;;;;;;;;;;;25.00;50.10;;;;;;5043861;28;19904;-62
2021/05/15 11:58:49;;;;;;;;;;;25.20;49.90;;;;;;5044072;28;19905;-63
2021/05/15 12:01:16;;;;;;;;;;;25.30;49.80;;;;;;5043616;28;19908;-64
2021/05/15 12:03:41;;;;;;;;;;;25.40;49.80;;;;;;5062466;28;19908;-62
2021/05/15 12:06:11;;;;;;;;;;;25.50;49.70;;;;;;5063199;28;20385;-65
2021/05/15 12:08:37;;;;;;;;;;;25.50;49.50;;;;;;5045637;28;19905;-63
2021/05/15 12:11:03;;;;;;;;;;;25.40;49.40;;;;;;5062852;28;19948;-63
2021/05/15 12:13:28;;;;;;;;;;;25.40;49.60;;;;;;5045835;28;19952;-61
2021/05/15 12:15:54;;;;;;;;;;;25.70;49.60;;;;;;5064623;28;19927;-64
2021/05/15 12:18:20;;;;;;;;;;;26.60;49.00;;;;;;5059205;28;20251;-63
2021/05/15 12:20:46;;;;;;;;;;;27.90;47.60;;;;;;5078331;28;19937;-63
2021/05/15 12:23:16;;;;;;;;;;;29.20;46.30;;;;;;5060118;28;19909;-63
2021/05/15 12:25:55;;;;;;;;;;;29.80;45.50;;;;;;5060024;28;19908;-64
2021/05/15 12:28:22;;;;;;;;;;;29.70;45.10;;;;;;5077948;28;19908;-64
2021/05/15 12:30:48;;;;;;;;;;;29.20;45.60;;;;;;5077711;28;20361;-64
2021/05/15 12:33:16;;;;;;;;;;;29.10;46.20;;;;;;5059467;28;20376;-63
2021/05/15 12:35:42;;;;;;;;;;;29.90;45.50;;;;;;5059479;28;19904;-64
2021/05/15 12:38:08;;;;;;;;;;;29.90;45.10;;;;;;5067919;28;19909;-65
2021/05/15 12:40:34;;;;;;;;;;;30.10;45.10;;;;;;5048815;28;20269;-66
2021/05/15 12:43:10;;;;;;;;;;;29.90;44.90;;;;;;5048189;28;19928;-65
2021/05/15 12:45:36;;;;;;;;;;;29.40;45.20;;;;;;5066166;28;19959;-64
2021/05/15 12:48:02;;;;;;;;;;;28.90;45.50;;;;;;5047601;28;19908;-63
2021/05/15 12:50:29;;;;;;;;;;;28.70;45.70;;;;;;5068270;28;19950;-65
2021/05/15 12:53:04;;;;;;;;;;;28.70;45.70;;;;;;5072504;28;20270;-63
2021/05/15 12:55:30;;;;;;;;;;;28.50;45.50;;;;;;5046647;28;19909;-64
2021/05/15 12:57:56;;;;;;;;;;;28.20;45.80;;;;;;5045687;28;19931;-64
2021/05/15 13:00:22;;;;;;;;;;;28.00;45.90;;;;;;5046289;28;20349;-66
2021/05/15 13:02:58;;;;;;;;;;;27.90;46.00;;;;;;5066933;28;19912;-64
2021/05/15 13:05:27;;;;;;;;;;;27.80;46.10;;;;;;5048428;28;19922;-65
2021/05/15 13:08:02;;;;;;;;;;;27.70;46.10;;;;;;5047081;28;19908;-64
2021/05/15 13:10:27;;;;;;;;;;;27.60;46.10;;;;;;5048836;28;19912;-65
2021/05/15 13:12:53;;;;;;;;;;;27.40;46.20;;;;;;5046738;28;19905;-66
2021/05/15 13:15:19;;;;;;;;;;;27.20;46.20;;;;;;5064949;28;20361;-64
2021/05/15 13:17:44;;;;;;;;;;;27.20;46.50;;;;;;5064125;28;19999;-65
2021/05/15 13:20:10;;;;;;;;;;;27.40;46.10;;;;;;5066208;28;20270;-65
2021/05/15 13:22:35;;;;;;;;;;;27.50;45.80;;;;;;5065175;28;19908;-64
2021/05/15 13:25:01;;;;;;;;;;;27.30;45.90;;;;;;5064623;28;19967;-64
2021/05/15 13:27:26;;;;;;;;;;;27.40;45.80;;;;;;5066154;28;19940;-64
2021/05/15 13:29:52;;;;;;;;;;;27.30;45.90;;;;;;5047602;28;20694;-65
2021/05/15 13:32:18;;;;;;;;;;;27.20;46.00;;;;;;5074952;28;19904;-64
2021/05/15 13:34:43;;;;;;;;;;;27.10;46.70;;;;;;5058356;28;19912;-66
2021/05/15 13:37:09;;;;;;;;;;;27.10;46.20;;;;;;5066026;28;19905;-65
2021/05/15 13:39:34;;;;;;;;;;;27.00;46.20;;;;;;5071947;28;20263;-65
2021/05/15 13:42:00;;;;;;;;;;;26.80;46.30;;;;;;5064644;28;20415;-65
2021/05/15 13:44:25;;;;;;;;;;;26.60;46.30;;;;;;5072813;28;19913;-65
2021/05/15 13:46:51;;;;;;;;;;;26.50;46.40;;;;;;5064167;28;19909;-65
2021/05/15 13:49:17;;;;;;;;;;;26.60;46.20;;;;;;5064887;28;19911;-65
2021/05/15 13:51:42;;;;;;;;;;;26.40;46.00;;;;;;5047605;28;19909;-64
2021/05/15 13:54:11;;;;;;;;;;;26.20;46.80;;;;;;5063759;28;19909;-63
2021/05/15 13:56:37;;;;;;;;;;;26.20;46.20;;;;;;5048692;28;19905;-64
2021/05/15 13:59:03;;;;;;;;;;;26.20;46.20;;;;;;5064070;28;20326;-64
2021/05/15 14:01:29;;;;;;;;;;;26.40;46.40;;;;;;5065665;28;19957;-65
2021/05/15 14:03:54;;;;;;;;;;;26.50;46.40;;;;;;5051485;28;19908;-66
2021/05/15 14:06:20;;;;;;;;;;;27.10;45.70;;;;;;5056456;28;20053;-65
2021/05/15 14:08:45;;;;;;;;;;;27.50;45.00;;;;;;5074347;28;19905;-65
2021/05/15 14:11:11;;;;;;;;;;;27.50;45.00;;;;;;5055478;28;19908;-66
2021/05/15 14:13:36;;;;;;;;;;;27.90;44.70;;;;;;5074554;28;19995;-63
2021/05/15 14:16:02;;;;;;;;;;;28.20;44.00;;;;;;5056244;28;20259;-65